HBC weather

Public forecast

Using degrees Fahrenheit for public forecast. Weather courtesy of forecast.io.

Closest aviation weather report (METAR) to Mohall Municipal Airport

Closest report is Minot Air Force Base, 22.3 nm (41.4 km) SSE. Retrieved 2020/08/10 07:56 UTC (49 minutes ago):

KMIB 100756Z AUTO 26008KT 10SM CLR 11/06 A2994 RMK AO2 SLP143 T01130060

Closest aviation forecast (TAF) to Mohall Municipal Airport

Closest forecast is Minot Air Force Base, 22.3 nm (41.4 km) SSE. Retrieved 2020/08/10 09:03 UTC (0 seconds ago):

TAF KMIB 100900Z 1009/1115 25009KT 9999 FEW100 QNH2992INS BECMG 1016/1017 28015G25KT 9999 FEW100 QNH2982INS BECMG 1023/1024 24009KT 9999 FEW100 QNH2977INS TX28/1022Z TN10/1011Z